createdAt,value
2018-06-01T00:02:16.631Z,87.17
2018-06-01T00:04:45.649Z,87.00
2018-06-01T00:07:13.910Z,87.07
2018-06-01T00:09:42.932Z,87.58
2018-06-01T00:12:11.199Z,88.28
2018-06-01T00:14:39.454Z,88.46
2018-06-01T00:17:08.496Z,87.95
2018-06-01T00:19:36.755Z,88.44
2018-06-01T00:22:05.028Z,88.11
2018-06-01T00:24:34.063Z,88.22
2018-06-01T00:27:03.644Z,88.73
2018-06-01T00:29:32.688Z,88.08
2018-06-01T00:32:00.939Z,87.91
2018-06-01T00:34:29.208Z,86.46
2018-06-01T00:36:57.474Z,85.46
2018-06-01T00:39:26.499Z,85.55
2018-06-01T00:41:54.764Z,85.46
2018-06-01T00:44:23.035Z,85.53
2018-06-01T00:46:52.142Z,85.63
2018-06-01T00:49:21.167Z,85.54
2018-06-01T00:51:49.439Z,86.00
2018-06-01T00:54:17.709Z,86.04
2018-06-01T00:56:45.980Z,88.34
2018-06-01T00:59:14.596Z,87.99
2018-06-01T01:01:42.852Z,87.82
2018-06-01T01:04:11.135Z,87.94
2018-06-01T01:06:39.406Z,88.56
2018-06-01T01:09:08.426Z,87.33
2018-06-01T01:11:36.695Z,87.23
2018-06-01T01:14:05.727Z,86.80
2018-06-01T01:16:33.997Z,86.98
2018-06-01T01:19:02.277Z,86.16
2018-06-01T01:21:30.548Z,85.56
2018-06-01T01:23:58.810Z,85.22
2018-06-01T01:26:27.067Z,85.92
2018-06-01T01:28:56.134Z,85.69
2018-06-01T01:31:25.112Z,83.96
2018-06-01T01:33:53.387Z,83.69
2018-06-01T01:36:21.640Z,84.52
2018-06-01T01:38:50.671Z,83.21
2018-06-01T01:41:18.921Z,83.49
2018-06-01T01:43:48.031Z,83.90
2018-06-01T01:46:16.280Z,83.20
2018-06-01T01:48:45.316Z,84.03
2018-06-01T01:51:13.565Z,84.04
2018-06-01T01:53:42.595Z,84.09
2018-06-01T01:56:10.843Z,83.65
2018-06-01T01:58:39.886Z,83.81
2018-06-01T02:01:08.136Z,83.79
2018-06-01T02:03:38.403Z,84.69
2018-06-01T02:06:06.671Z,85.36
2018-06-01T02:08:34.918Z,85.77
2018-06-01T02:11:03.957Z,85.92
2018-06-01T02:13:32.212Z,85.80
2018-06-01T02:16:00.483Z,85.82
2018-06-01T02:18:29.506Z,85.82
2018-06-01T02:20:57.777Z,85.63
2018-06-01T02:23:26.027Z,85.63
2018-06-01T02:25:55.068Z,85.07
2018-06-01T02:28:23.320Z,84.28
2018-06-01T02:30:51.589Z,83.56
2018-06-01T02:33:20.611Z,83.46
2018-06-01T02:35:48.886Z,83.26
2018-06-01T02:38:17.150Z,82.75
2018-06-01T02:40:46.184Z,82.82
2018-06-01T02:43:14.439Z,82.92
2018-06-01T02:45:43.630Z,82.93
2018-06-01T02:48:12.654Z,82.73
2018-06-01T02:50:40.918Z,81.58
2018-06-01T02:53:09.930Z,83.15
2018-06-01T02:55:38.195Z,81.85
2018-06-01T02:58:06.454Z,81.88
2018-06-01T03:00:34.733Z,83.05
2018-06-01T03:03:03.759Z,83.74
2018-06-01T03:05:32.023Z,82.77
2018-06-01T03:08:01.055Z,82.69
2018-06-01T03:10:29.291Z,84.57
2018-06-01T03:12:58.327Z,84.03
2018-06-01T03:15:26.602Z,83.86
2018-06-01T03:17:56.304Z,83.04
2018-06-01T03:20:24.581Z,83.91
2018-06-01T03:22:53.591Z,82.90
2018-06-01T03:25:22.340Z,82.04
2018-06-01T03:27:52.104Z,80.23
2018-06-01T03:30:20.357Z,80.42
2018-06-01T03:32:49.389Z,80.70
2018-06-01T03:35:17.666Z,81.44
2018-06-01T03:37:45.930Z,83.06
2018-06-01T03:40:14.947Z,80.24
2018-06-01T03:42:43.206Z,81.52
2018-06-01T03:45:12.231Z,81.51
2018-06-01T03:47:40.478Z,80.13
2018-06-01T03:50:09.507Z,82.90
2018-06-01T03:52:37.758Z,83.18
2018-06-01T03:55:06.799Z,82.53
2018-06-01T03:57:35.064Z,84.09
2018-06-01T04:00:03.333Z,83.89
2018-06-01T04:02:31.588Z,86.27
2018-06-01T04:05:00.633Z,82.07
2018-06-01T04:07:28.880Z,81.09
2018-06-01T04:09:57.155Z,81.50
2018-06-01T04:12:26.464Z,82.48
2018-06-01T04:14:55.585Z,81.37
2018-06-01T04:17:23.904Z,78.58
2018-06-01T04:19:52.864Z,80.02
2018-06-01T04:22:21.132Z,77.58
2018-06-01T04:24:49.426Z,78.07
2018-06-01T04:27:17.697Z,77.18
2018-06-01T04:29:45.960Z,76.40
2018-06-01T04:32:14.983Z,75.80
2018-06-01T04:34:43.253Z,75.56
2018-06-01T04:37:11.511Z,75.02
2018-06-01T04:39:40.544Z,74.99
2018-06-01T04:42:08.826Z,76.92
2018-06-01T04:44:38.314Z,75.45
2018-06-01T04:47:07.331Z,75.59
2018-06-01T04:49:36.409Z,74.66
2018-06-01T04:52:04.674Z,73.48
2018-06-01T04:54:33.694Z,75.74
2018-06-01T04:57:01.956Z,72.86
2018-06-01T04:59:30.971Z,73.27
2018-06-01T05:01:59.242Z,75.34
2018-06-01T05:04:28.262Z,73.62
2018-06-01T05:06:56.510Z,74.81
2018-06-01T05:09:25.551Z,75.30
2018-06-01T05:11:53.829Z,71.49
2018-06-01T05:14:22.074Z,73.63
2018-06-01T05:16:51.117Z,71.83
2018-06-01T05:19:19.371Z,70.99
2018-06-01T05:21:47.636Z,74.23
2018-06-01T05:24:15.890Z,71.86
2018-06-01T05:26:44.944Z,71.33
2018-06-01T05:29:13.207Z,74.70
2018-06-01T05:31:41.475Z,75.02
2018-06-01T05:34:09.738Z,72.39
2018-06-01T05:36:38.774Z,72.13
2018-06-01T05:39:07.035Z,72.74
2018-06-01T05:41:36.061Z,73.32
2018-06-01T05:44:04.315Z,74.10
2018-06-01T05:46:32.583Z,72.83
2018-06-01T05:49:01.800Z,73.16
2018-06-01T05:51:30.074Z,71.35
2018-06-01T05:53:59.103Z,69.58
2018-06-01T05:56:27.364Z,70.64
2018-06-01T05:58:55.620Z,69.17
2018-06-01T06:01:24.657Z,70.24
2018-06-01T06:03:52.919Z,69.01
2018-06-01T06:06:21.191Z,67.08
2018-06-01T06:08:50.212Z,64.76
2018-06-01T06:11:18.480Z,66.05
2018-06-01T06:13:46.740Z,65.00
2018-06-01T06:16:15.783Z,65.32
2018-06-01T06:18:44.035Z,61.13
2018-06-01T06:21:13.241Z,62.23
2018-06-01T06:23:41.610Z,60.95
2018-06-01T06:26:10.642Z,59.26
2018-06-01T06:28:38.898Z,59.82
2018-06-01T06:31:07.208Z,60.86
2018-06-01T06:33:35.455Z,58.90
2018-06-01T06:36:04.491Z,58.16
2018-06-01T06:38:32.747Z,60.42
2018-06-01T06:41:00.990Z,56.32
2018-06-01T06:43:30.049Z,57.19
2018-06-01T06:45:58.305Z,55.21
2018-06-01T06:48:26.571Z,56.34
2018-06-01T06:50:54.843Z,55.38
2018-06-01T06:53:25.124Z,52.10
2018-06-01T06:55:53.381Z,53.93
2018-06-01T06:58:21.654Z,52.25
2018-06-01T07:00:49.903Z,46.92
2018-06-01T07:03:18.932Z,50.02
2018-06-01T07:05:47.195Z,50.88
2018-06-01T07:08:16.295Z,49.40
2018-06-01T07:10:45.320Z,48.01
2018-06-01T07:13:13.575Z,46.79
2018-06-01T07:15:41.827Z,33.50
2018-06-01T07:18:10.101Z,30.67
2018-06-01T07:20:39.871Z,30.60
2018-06-01T07:23:08.132Z,30.60
2018-06-01T07:25:36.410Z,27.03
2018-06-01T07:28:04.680Z,27.83
2018-06-01T07:30:33.704Z,27.72
2018-06-01T07:33:01.971Z,33.00
2018-06-01T07:35:31.674Z,29.74
2018-06-01T07:38:00.707Z,30.99
2018-06-01T07:40:28.967Z,30.61
2018-06-01T07:42:57.226Z,26.00
2018-06-01T07:45:26.248Z,26.02
2018-06-01T07:47:54.524Z,28.41
2018-06-01T07:50:22.784Z,33.12
2018-06-01T07:52:52.414Z,36.06
2018-06-01T07:55:20.692Z,36.29
2018-06-01T07:57:48.963Z,37.02
2018-06-01T08:00:18.075Z,32.05
2018-06-01T08:02:46.388Z,28.40
2018-06-01T08:05:14.776Z,27.42
2018-06-01T08:07:43.040Z,27.07
2018-06-01T08:10:11.301Z,24.35
2018-06-01T08:12:39.569Z,26.00
2018-06-01T08:15:08.594Z,27.22
2018-06-01T08:17:36.855Z,27.30
2018-06-01T08:20:05.111Z,28.01
2018-06-01T08:22:34.143Z,26.16
2018-06-01T08:25:02.415Z,23.12
2018-06-01T08:27:31.436Z,22.72
2018-06-01T08:29:59.716Z,28.07
2018-06-01T08:32:28.020Z,35.10
2018-06-01T08:34:57.251Z,41.04
2018-06-01T08:37:26.275Z,44.18
2018-06-01T08:39:54.529Z,36.26
2018-06-01T08:42:23.563Z,37.82
2018-06-01T08:44:51.833Z,41.81
2018-06-01T08:47:20.886Z,43.54
2018-06-01T08:49:49.153Z,43.69
2018-06-01T08:52:17.496Z,44.13
2018-06-01T08:54:45.764Z,45.92
2018-06-01T08:57:14.783Z,46.51
2018-06-01T08:59:43.043Z,39.91
2018-06-01T09:02:12.061Z,29.98
2018-06-01T09:04:40.347Z,34.81
2018-06-01T09:07:09.447Z,39.24
2018-06-01T09:09:37.707Z,39.96
2018-06-01T09:12:06.474Z,38.18
2018-06-01T09:14:35.619Z,32.46
2018-06-01T09:17:03.875Z,36.76
2018-06-01T09:19:32.984Z,40.21
2018-06-01T09:22:01.240Z,43.59
2018-06-01T09:24:30.371Z,41.83
2018-06-01T09:26:58.623Z,31.59
2018-06-01T09:29:26.891Z,28.99
2018-06-01T09:31:55.906Z,27.71
2018-06-01T09:34:24.958Z,26.26
2018-06-01T09:36:53.195Z,26.40
2018-06-01T09:39:22.238Z,25.36
2018-06-01T09:41:50.492Z,29.78
2018-06-01T09:44:18.741Z,31.74
2018-06-01T09:46:47.760Z,30.19
2018-06-01T09:49:16.032Z,32.65
2018-06-01T09:51:45.059Z,37.23
2018-06-01T09:54:13.325Z,37.17
2018-06-01T09:56:41.578Z,31.77
2018-06-01T09:59:10.607Z,32.04
2018-06-01T10:01:38.874Z,32.04
2018-06-01T10:04:07.295Z,28.21
2018-06-01T10:06:35.561Z,28.94
2018-06-01T10:09:03.820Z,29.84
2018-06-01T10:11:32.099Z,32.33
2018-06-01T10:14:00.360Z,35.56
2018-06-01T10:16:29.400Z,31.44
2018-06-01T10:18:57.661Z,30.00
2018-06-01T10:21:26.311Z,29.94
2018-06-01T10:23:56.095Z,29.18
2018-06-01T10:26:24.369Z,26.45
2018-06-01T10:28:52.629Z,25.88
2018-06-01T10:31:20.899Z,31.03
2018-06-01T10:33:49.924Z,34.94
2018-06-01T10:36:18.179Z,37.97
2018-06-01T10:38:46.449Z,39.10
2018-06-01T10:41:15.487Z,41.20
2018-06-01T10:43:43.740Z,38.75
2018-06-01T10:46:12.772Z,38.66
2018-06-01T10:48:41.027Z,39.16
2018-06-01T10:51:09.285Z,34.91
2018-06-01T10:53:38.305Z,35.30
2018-06-01T10:56:06.571Z,32.36
2018-06-01T10:58:34.831Z,30.61
2018-06-01T11:01:03.863Z,36.12
2018-06-01T11:03:32.111Z,36.12
2018-06-01T11:06:01.152Z,37.41
2018-06-01T11:08:29.400Z,41.22
2018-06-01T11:10:58.431Z,42.51
2018-06-01T11:13:26.683Z,38.21
2018-06-01T11:15:55.713Z,33.74
2018-06-01T11:18:23.963Z,31.62
2018-06-01T11:20:52.981Z,32.80
2018-06-01T11:23:21.246Z,33.08
2018-06-01T11:25:49.510Z,33.14
2018-06-01T11:28:18.435Z,35.16
2018-06-01T11:30:46.704Z,38.68
2018-06-01T11:33:14.955Z,38.81
2018-06-01T11:35:44.799Z,35.40
2018-06-01T11:38:13.069Z,32.61
2018-06-01T11:40:42.101Z,31.32
2018-06-01T11:43:10.366Z,29.01
2018-06-01T11:45:39.379Z,29.37
2018-06-01T11:48:07.631Z,27.03
2018-06-01T11:50:35.915Z,30.00
2018-06-01T11:53:04.188Z,33.22
2018-06-01T11:55:33.217Z,33.36
2018-06-01T11:58:01.476Z,36.64
2018-06-01T12:00:29.756Z,35.85
2018-06-01T12:02:58.019Z,33.88
2018-06-01T12:05:27.057Z,37.79
2018-06-01T12:07:55.311Z,39.54
2018-06-01T12:10:24.411Z,38.22
2018-06-01T12:12:52.662Z,35.55
2018-06-01T12:15:20.933Z,32.04
2018-06-01T12:17:49.211Z,31.68
2018-06-01T12:20:17.536Z,33.74
2018-06-01T12:22:45.791Z,36.43
2018-06-01T12:25:14.823Z,32.21
2018-06-01T12:27:43.083Z,36.96
2018-06-01T12:30:12.102Z,37.70
2018-06-01T12:32:40.371Z,38.08
2018-06-01T12:35:08.657Z,34.70
2018-06-01T12:37:36.985Z,38.41
2018-06-01T12:40:05.949Z,37.92
2018-06-01T12:42:34.212Z,37.98
2018-06-01T12:45:03.314Z,41.41
2018-06-01T12:47:31.606Z,38.83
2018-06-01T12:49:59.860Z,37.86
2018-06-01T12:52:28.893Z,38.50
2018-06-01T12:54:57.143Z,39.50
2018-06-01T12:57:26.172Z,37.04
2018-06-01T12:59:54.434Z,35.52
2018-06-01T13:02:23.465Z,36.49
2018-06-01T13:04:51.723Z,37.12
2018-06-01T13:07:19.976Z,37.11
2018-06-01T13:09:49.008Z,35.91
2018-06-01T13:12:17.263Z,37.47
2018-06-01T13:14:46.291Z,36.52
2018-06-01T13:17:14.560Z,40.87
2018-06-01T13:19:42.813Z,35.30
2018-06-01T13:22:11.872Z,37.54
2018-06-01T13:24:40.141Z,34.45
2018-06-01T13:27:08.410Z,39.65
2018-06-01T13:29:36.659Z,34.63
2018-06-01T13:32:05.707Z,34.68
2018-06-01T13:34:34.059Z,39.87
2018-06-01T13:37:02.329Z,38.69
2018-06-01T13:39:30.589Z,35.01
2018-06-01T13:41:59.627Z,36.12
2018-06-01T13:44:27.880Z,38.47
2018-06-01T13:46:57.187Z,39.27
2018-06-01T13:49:25.459Z,36.67
2018-06-01T13:51:54.563Z,35.10
2018-06-01T13:54:23.604Z,34.14
2018-06-01T13:56:51.867Z,34.40
2018-06-01T13:59:20.126Z,34.27
2018-06-01T14:01:48.395Z,34.76
2018-06-01T14:04:17.420Z,36.36
2018-06-01T14:06:45.686Z,37.14
2018-06-01T14:09:13.941Z,35.91
2018-06-01T14:11:42.973Z,34.48
2018-06-01T14:14:11.232Z,37.09
2018-06-01T14:19:39.528Z,35.16
2018-06-01T14:22:07.791Z,35.68
2018-06-01T14:24:36.824Z,37.99
2018-06-01T14:27:05.083Z,35.59
2018-06-01T14:29:34.191Z,37.66
2018-06-01T14:32:02.476Z,37.80
2018-06-01T14:34:30.723Z,36.88
2018-06-01T14:36:59.143Z,37.30
2018-06-01T14:39:27.395Z,36.67
2018-06-01T14:41:56.411Z,35.93
2018-06-01T14:44:25.449Z,37.00
2018-06-01T14:46:53.739Z,38.95
2018-06-01T14:49:21.978Z,36.70
2018-06-01T14:51:50.251Z,39.34
2018-06-01T14:54:18.543Z,38.84
2018-06-01T14:56:46.910Z,38.52
2018-06-01T14:59:15.931Z,38.46
2018-06-01T15:01:44.207Z,39.87
2018-06-01T15:04:12.477Z,39.94
2018-06-01T15:06:40.750Z,39.87
2018-06-01T15:09:09.775Z,40.15
2018-06-01T15:11:38.024Z,39.43
2018-06-01T15:14:07.058Z,38.04
2018-06-01T15:16:35.311Z,38.34
2018-06-01T15:19:03.597Z,41.82
2018-06-01T15:21:31.857Z,40.08
2018-06-01T15:24:00.892Z,42.62
2018-06-01T15:26:29.143Z,41.67
2018-06-01T15:28:58.182Z,43.96
2018-06-01T15:31:26.526Z,43.06
2018-06-01T15:33:54.833Z,44.49
2018-06-01T15:36:23.824Z,42.93
2018-06-01T15:38:52.082Z,44.37
2018-06-01T15:41:21.110Z,42.42
2018-06-01T15:43:49.386Z,42.96
2018-06-01T15:46:17.639Z,44.88
2018-06-01T15:48:46.743Z,45.57
2018-06-01T15:51:14.995Z,46.79
2018-06-01T15:53:43.263Z,44.54
2018-06-01T15:56:11.524Z,43.98
2018-06-01T15:58:39.820Z,44.66
2018-06-01T16:01:08.039Z,45.14
2018-06-01T16:03:36.316Z,45.64
2018-06-01T16:06:05.333Z,45.08
2018-06-01T16:08:33.602Z,44.72
2018-06-01T16:11:02.616Z,44.57
2018-06-01T16:13:31.724Z,44.91
2018-06-01T16:15:59.972Z,45.28
2018-06-01T16:18:28.988Z,45.06
2018-06-01T16:20:57.256Z,44.55
2018-06-01T16:23:26.279Z,43.68
2018-06-01T16:25:54.534Z,43.27
2018-06-01T16:28:22.805Z,43.87
2018-06-01T16:30:51.824Z,45.09
2018-06-01T16:33:20.091Z,44.60
2018-06-01T16:35:49.114Z,45.65
2018-06-01T16:38:17.387Z,44.13
2018-06-01T16:40:45.650Z,43.50
2018-06-01T16:43:14.687Z,44.37
2018-06-01T16:45:42.955Z,43.55
2018-06-01T16:48:11.227Z,43.54
2018-06-01T16:50:39.492Z,44.86
2018-06-01T16:53:08.511Z,45.95
2018-06-01T16:55:36.788Z,44.60
2018-06-01T16:58:05.040Z,46.20
2018-06-01T17:00:34.071Z,46.80
2018-06-01T17:03:02.435Z,47.02
2018-06-01T17:05:31.946Z,48.52
2018-06-01T17:08:00.224Z,46.00
2018-06-01T17:10:29.235Z,46.94
2018-06-01T17:12:57.503Z,48.54
2018-06-01T17:15:25.783Z,46.02
2018-06-01T17:17:54.051Z,47.30
2018-06-01T17:20:23.079Z,47.10
2018-06-01T17:22:51.334Z,47.21
2018-06-01T17:25:20.434Z,47.38
2018-06-01T17:27:49.464Z,48.59
2018-06-01T17:30:17.736Z,47.91
2018-06-01T17:32:45.986Z,48.82
2018-06-01T17:35:15.011Z,48.89
2018-06-01T17:37:43.279Z,48.29
2018-06-01T17:40:11.531Z,49.29
2018-06-01T17:42:40.555Z,49.64
2018-06-01T17:45:08.821Z,50.33
2018-06-01T17:47:37.839Z,50.89
2018-06-01T17:50:06.639Z,50.87
2018-06-01T17:52:34.886Z,51.63
2018-06-01T17:55:04.008Z,51.14
2018-06-01T17:57:32.359Z,51.42
2018-06-01T18:00:00.686Z,51.73
2018-06-01T18:02:28.863Z,51.48
2018-06-01T18:04:57.124Z,52.02
2018-06-01T18:07:25.647Z,52.94
2018-06-01T18:09:53.919Z,52.44
2018-06-01T18:12:22.182Z,52.83
2018-06-01T18:14:50.440Z,52.95
2018-06-01T18:17:19.464Z,53.10
2018-06-01T18:19:47.734Z,52.66
2018-06-01T18:22:15.987Z,53.82
2018-06-01T18:24:44.292Z,53.31
2018-06-01T18:27:12.563Z,53.20
2018-06-01T18:29:40.901Z,53.62
2018-06-01T18:32:09.169Z,51.57
2018-06-01T18:34:37.417Z,51.89
2018-06-01T18:37:06.448Z,50.71
2018-06-01T18:39:34.703Z,51.91
2018-06-01T18:44:46.403Z,52.54
2018-06-01T18:47:14.671Z,52.96
2018-06-01T18:49:43.702Z,52.42
2018-06-01T18:52:11.960Z,53.26
2018-06-01T18:54:40.237Z,53.36
2018-06-01T18:57:09.255Z,53.80
2018-06-01T18:59:37.527Z,53.41
2018-06-01T19:02:05.832Z,53.50
2018-06-01T19:04:34.066Z,53.56
2018-06-01T19:07:03.091Z,53.96
2018-06-01T19:09:31.357Z,53.30
2018-06-01T19:12:00.392Z,54.33
2018-06-01T19:14:29.999Z,54.84
2018-06-01T19:16:58.267Z,55.22
2018-06-01T19:19:26.522Z,55.20
2018-06-01T19:21:54.804Z,55.33
2018-06-01T19:24:23.087Z,57.05
2018-06-01T19:26:51.360Z,57.47
2018-06-01T19:29:21.008Z,58.25
2018-06-01T19:31:49.279Z,58.78
2018-06-01T19:34:17.543Z,59.47
2018-06-01T19:36:46.567Z,60.48
2018-06-01T19:39:14.828Z,62.90
2018-06-01T19:41:43.095Z,61.19
2018-06-01T19:44:12.407Z,61.88
2018-06-01T19:46:40.676Z,66.38
2018-06-01T19:49:09.708Z,65.74
2018-06-01T19:51:37.959Z,64.83
2018-06-01T19:54:06.983Z,66.62
2018-06-01T19:56:35.250Z,66.85
2018-06-01T19:59:03.507Z,67.44
2018-06-01T20:01:32.544Z,67.95
2018-06-01T20:04:00.798Z,67.68
2018-06-01T20:06:29.830Z,69.10
2018-06-01T20:08:58.075Z,65.59
2018-06-01T20:11:26.345Z,64.60
2018-06-01T20:13:55.396Z,64.83
2018-06-01T20:16:23.646Z,65.54
2018-06-01T20:18:51.907Z,65.98
2018-06-01T20:21:20.936Z,68.93
2018-06-01T20:23:49.305Z,69.52
2018-06-01T20:26:17.577Z,71.54
2018-06-01T20:28:46.609Z,72.80
2018-06-01T20:31:14.875Z,72.15
2018-06-01T20:33:43.147Z,71.34
2018-06-01T20:36:11.514Z,69.15
2018-06-01T20:38:40.550Z,69.24
2018-06-01T20:41:08.814Z,68.56
2018-06-01T20:43:37.079Z,69.39
2018-06-01T20:46:05.335Z,71.70
2018-06-01T20:48:33.843Z,72.32
2018-06-01T20:51:02.107Z,72.72
2018-06-01T20:53:30.368Z,72.26
2018-06-01T20:55:58.700Z,72.50
2018-06-01T20:58:26.965Z,73.13
2018-06-01T21:00:55.994Z,73.37
2018-06-01T21:03:24.256Z,74.35
2018-06-01T21:05:52.502Z,75.21
2018-06-01T21:08:21.546Z,75.98
2018-06-01T21:10:49.791Z,76.43
2018-06-01T21:13:18.824Z,75.94
2018-06-01T21:15:47.075Z,73.58
2018-06-01T21:18:16.190Z,71.71
2018-06-01T21:20:44.450Z,71.40
2018-06-01T21:23:13.484Z,71.44
2018-06-01T21:25:42.735Z,72.99
2018-06-01T21:28:11.004Z,72.68
2018-06-01T21:30:39.260Z,73.34
2018-06-01T21:33:07.520Z,74.49
2018-06-01T21:35:35.780Z,76.20
2018-06-01T21:38:04.812Z,72.68
2018-06-01T21:40:33.073Z,71.80
2018-06-01T21:43:01.339Z,71.89
2018-06-01T21:45:30.364Z,72.02
2018-06-01T21:47:58.647Z,72.10
2018-06-01T21:50:26.900Z,72.78
2018-06-01T21:52:55.922Z,73.00
2018-06-01T21:55:24.189Z,73.38
2018-06-01T21:57:52.438Z,74.80
2018-06-01T22:00:21.472Z,75.22
2018-06-01T22:02:49.727Z,76.07
2018-06-01T22:05:18.757Z,76.42
2018-06-01T22:07:47.021Z,76.64
2018-06-01T22:10:15.285Z,76.36
2018-06-01T22:12:44.706Z,74.42
2018-06-01T22:15:12.972Z,77.14
2018-06-01T22:17:41.911Z,78.51
2018-06-01T22:20:10.178Z,79.61
2018-06-01T22:22:38.430Z,79.56
2018-06-01T22:25:07.463Z,78.41
2018-06-01T22:27:35.731Z,78.19
2018-06-01T22:30:03.998Z,77.92
2018-06-01T22:32:33.023Z,74.96
2018-06-01T22:35:01.300Z,75.26
2018-06-01T22:37:29.556Z,75.47
2018-06-01T22:39:58.594Z,76.08
2018-06-01T22:42:26.855Z,76.90
2018-06-01T22:44:55.132Z,77.30
2018-06-01T22:47:23.385Z,78.65
2018-06-01T22:49:52.415Z,78.14
2018-06-01T22:52:20.672Z,77.83
2018-06-01T22:54:49.710Z,76.93
2018-06-01T22:57:17.966Z,77.01
2018-06-01T22:59:46.237Z,79.73
2018-06-01T23:02:14.482Z,81.81
2018-06-01T23:04:42.771Z,81.96
2018-06-01T23:07:11.022Z,82.42
2018-06-01T23:09:39.279Z,82.64
2018-06-01T23:12:07.548Z,82.56
2018-06-01T23:14:35.860Z,80.81
2018-06-01T23:17:04.849Z,82.59
2018-06-01T23:19:33.110Z,82.82
2018-06-01T23:22:01.376Z,83.01
2018-06-01T23:24:30.651Z,82.08
2018-06-01T23:26:58.904Z,82.67
2018-06-01T23:29:27.159Z,83.71
2018-06-01T23:31:55.427Z,83.37
2018-06-01T23:34:23.688Z,82.88
2018-06-01T23:36:52.721Z,81.76
2018-06-01T23:39:20.975Z,80.80
2018-06-01T23:41:50.027Z,80.90
2018-06-01T23:44:18.299Z,80.65
2018-06-01T23:46:46.563Z,81.07
2018-06-01T23:49:14.819Z,82.74
2018-06-01T23:51:43.288Z,84.07
2018-06-01T23:54:12.316Z,85.02
2018-06-01T23:56:40.601Z,84.29
2018-06-01T23:59:08.859Z,84.17
